sensor_id;sensor_type;location;lat;lon;timestamp;temperature;humidity
52295;DHT22;38243;53.212;6.574;2024-03-23T14:37:33;18.50;87.20
52295;DHT22;38243;53.212;6.574;2024-03-23T14:39:59;18.50;82.90
52295;DHT22;38243;53.212;6.574;2024-03-23T14:42:25;18.40;82.00
52295;DHT22;38243;53.212;6.574;2024-03-23T14:44:51;18.50;81.80
52295;DHT22;38243;53.212;6.574;2024-03-23T14:47:18;18.50;81.40
52295;DHT22;38243;53.212;6.574;2024-03-23T14:49:44;18.50;80.90
52295;DHT22;38243;53.212;6.574;2024-03-23T14:52:16;18.50;80.80
52295;DHT22;38243;53.212;6.574;2024-03-23T14:54:42;18.50;80.70
52295;DHT22;38243;53.212;6.574;2024-03-23T14:57:07;18.50;80.60
52295;DHT22;38243;53.212;6.574;2024-03-23T14:59:35;18.50;80.40
52295;DHT22;38243;53.212;6.574;2024-03-23T15:02:00;18.50;80.30
52295;DHT22;38243;53.212;6.574;2024-03-23T15:04:26;18.50;80.10
52295;DHT22;38243;53.212;6.574;2024-03-23T15:06:52;18.50;80.10
52295;DHT22;38243;53.212;6.574;2024-03-23T15:09:18;18.40;79.90
52295;DHT22;38243;53.212;6.574;2024-03-23T15:11:44;18.40;79.90
52295;DHT22;38243;53.212;6.574;2024-03-23T15:14:09;18.40;79.70
52295;DHT22;38243;53.212;6.574;2024-03-23T15:16:36;18.40;79.60
52295;DHT22;38243;53.212;6.574;2024-03-23T15:19:02;18.40;79.40
52295;DHT22;38243;53.212;6.574;2024-03-23T15:21:28;18.40;79.20
52295;DHT22;38243;53.212;6.574;2024-03-23T15:23:54;19.40;79.80
52295;DHT22;38243;53.212;6.574;2024-03-23T15:26:19;18.40;79.40
52295;DHT22;38243;53.212;6.574;2024-03-23T15:28:49;18.40;79.60
52295;DHT22;38243;53.212;6.574;2024-03-23T15:31:20;18.40;79.80
52295;DHT22;38243;53.212;6.574;2024-03-23T15:33:46;18.40;79.90
52295;DHT22;38243;53.212;6.574;2024-03-23T15:36:12;18.30;79.90
52295;DHT22;38243;53.212;6.574;2024-03-23T15:38:37;18.30;79.90
52295;DHT22;38243;53.212;6.574;2024-03-23T15:41:06;18.30;79.90
52295;DHT22;38243;53.212;6.574;2024-03-23T15:43:33;18.50;80.30
52295;DHT22;38243;53.212;6.574;2024-03-23T15:46:03;18.60;80.40
52295;DHT22;38243;53.212;6.574;2024-03-23T15:48:30;18.60;80.50
52295;DHT22;38243;53.212;6.574;2024-03-23T15:50:59;18.50;80.30
52295;DHT22;38243;53.212;6.574;2024-03-23T15:53:26;18.50;80.30
52295;DHT22;38243;53.212;6.574;2024-03-23T15:55:56;18.50;80.20
52295;DHT22;38243;53.212;6.574;2024-03-23T15:58:22;18.40;80.30
52295;DHT22;38243;53.212;6.574;2024-03-23T16:01:00;18.40;80.50
52295;DHT22;38243;53.212;6.574;2024-03-23T16:03:26;18.40;80.60
52295;DHT22;38243;53.212;6.574;2024-03-23T16:05:53;18.30;80.50
52295;DHT22;38243;53.212;6.574;2024-03-23T16:08:19;18.30;80.50
52295;DHT22;38243;53.212;6.574;2024-03-23T16:10:45;18.30;80.60
52295;DHT22;38243;53.212;6.574;2024-03-23T16:13:11;18.30;80.90
52295;DHT22;38243;53.212;6.574;2024-03-23T16:15:37;18.20;81.00
52295;DHT22;38243;53.212;6.574;2024-03-23T16:18:03;18.20;81.10
52295;DHT22;38243;53.212;6.574;2024-03-23T16:20:29;18.20;81.20
52295;DHT22;38243;53.212;6.574;2024-03-23T16:22:56;18.20;81.40
52295;DHT22;38243;53.212;6.574;2024-03-23T16:25:21;18.20;81.50
52295;DHT22;38243;53.212;6.574;2024-03-23T16:27:47;18.20;81.60
52295;DHT22;38243;53.212;6.574;2024-03-23T16:30:13;18.20;81.40
52295;DHT22;38243;53.212;6.574;2024-03-23T16:32:39;18.10;81.60
52295;DHT22;38243;53.212;6.574;2024-03-23T16:35:05;18.20;81.70
52295;DHT22;38243;53.212;6.574;2024-03-23T16:37:31;18.10;82.40
52295;DHT22;38243;53.212;6.574;2024-03-23T16:39:57;18.10;81.80
52295;DHT22;38243;53.212;6.574;2024-03-23T16:42:22;18.10;81.80
52295;DHT22;38243;53.212;6.574;2024-03-23T16:44:48;18.10;81.90
52295;DHT22;38243;53.212;6.574;2024-03-23T16:47:14;18.10;81.90
52295;DHT22;38243;53.212;6.574;2024-03-23T16:49:39;18.10;81.80
52295;DHT22;38243;53.212;6.574;2024-03-23T16:52:05;18.10;81.90
52295;DHT22;38243;53.212;6.574;2024-03-23T16:54:31;18.10;82.10
52295;DHT22;38243;53.212;6.574;2024-03-23T16:56:56;18.10;82.00
52295;DHT22;38243;53.212;6.574;2024-03-23T16:59:22;18.00;81.90
52295;DHT22;38243;53.212;6.574;2024-03-23T17:01:48;18.00;82.00
52295;DHT22;38243;53.212;6.574;2024-03-23T17:04:13;18.00;82.00
52295;DHT22;38243;53.212;6.574;2024-03-23T17:06:39;18.00;82.00
52295;DHT22;38243;53.212;6.574;2024-03-23T17:09:05;18.00;82.10
52295;DHT22;38243;53.212;6.574;2024-03-23T17:11:32;18.00;82.10
52295;DHT22;38243;53.212;6.574;2024-03-23T17:13:58;18.00;82.20
52295;DHT22;38243;53.212;6.574;2024-03-23T17:16:23;18.00;82.30
52295;DHT22;38243;53.212;6.574;2024-03-23T17:18:51;17.90;82.30
52295;DHT22;38243;53.212;6.574;2024-03-23T17:21:18;17.90;82.20
52295;DHT22;38243;53.212;6.574;2024-03-23T17:23:44;17.90;82.20
52295;DHT22;38243;53.212;6.574;2024-03-23T17:26:10;17.90;82.50
52295;DHT22;38243;53.212;6.574;2024-03-23T17:28:37;17.90;82.60
52295;DHT22;38243;53.212;6.574;2024-03-23T17:31:03;17.90;82.60
52295;DHT22;38243;53.212;6.574;2024-03-23T17:33:29;17.90;82.70
52295;DHT22;38243;53.212;6.574;2024-03-23T17:35:55;17.90;82.80
52295;DHT22;38243;53.212;6.574;2024-03-23T17:38:20;17.90;82.80
52295;DHT22;38243;53.212;6.574;2024-03-23T17:40:46;17.90;83.50
52295;DHT22;38243;53.212;6.574;2024-03-23T17:43:13;17.90;82.90
52295;DHT22;38243;53.212;6.574;2024-03-23T17:45:39;17.90;82.90
52295;DHT22;38243;53.212;6.574;2024-03-23T17:48:05;17.90;83.10
52295;DHT22;38243;53.212;6.574;2024-03-23T17:50:31;17.90;83.10
52295;DHT22;38243;53.212;6.574;2024-03-23T17:52:57;17.90;83.10
52295;DHT22;38243;53.212;6.574;2024-03-23T17:55:25;17.90;83.10
52295;DHT22;38243;53.212;6.574;2024-03-23T17:57:51;17.90;83.10
52295;DHT22;38243;53.212;6.574;2024-03-23T18:00:17;17.90;83.30
52295;DHT22;38243;53.212;6.574;2024-03-23T18:02:43;17.90;83.30
52295;DHT22;38243;53.212;6.574;2024-03-23T18:05:09;17.90;83.20
52295;DHT22;38243;53.212;6.574;2024-03-23T18:07:35;17.90;83.30
52295;DHT22;38243;53.212;6.574;2024-03-23T18:10:01;17.90;83.10
52295;DHT22;38243;53.212;6.574;2024-03-23T18:12:26;17.90;83.20
52295;DHT22;38243;53.212;6.574;2024-03-23T18:14:52;17.90;83.30
52295;DHT22;38243;53.212;6.574;2024-03-23T18:17:20;17.90;83.90
52295;DHT22;38243;53.212;6.574;2024-03-23T18:19:45;17.90;83.30
52295;DHT22;38243;53.212;6.574;2024-03-23T18:22:11;17.90;83.40
52295;DHT22;38243;53.212;6.574;2024-03-23T18:24:37;17.90;83.30
52295;DHT22;38243;53.212;6.574;2024-03-23T18:27:03;17.90;83.40
52295;DHT22;38243;53.212;6.574;2024-03-23T18:29:28;17.80;83.30
52295;DHT22;38243;53.212;6.574;2024-03-23T18:31:54;17.80;83.30
52295;DHT22;38243;53.212;6.574;2024-03-23T18:34:20;17.80;83.30
52295;DHT22;38243;53.212;6.574;2024-03-23T18:36:46;17.80;83.30
52295;DHT22;38243;53.212;6.574;2024-03-23T18:39:11;17.80;83.30
52295;DHT22;38243;53.212;6.574;2024-03-23T18:41:38;17.90;83.30
52295;DHT22;38243;53.212;6.574;2024-03-23T18:44:04;17.80;83.30
52295;DHT22;38243;53.212;6.574;2024-03-23T18:46:30;17.80;83.30
52295;DHT22;38243;53.212;6.574;2024-03-23T18:48:55;17.80;83.50
52295;DHT22;38243;53.212;6.574;2024-03-23T18:51:21;17.80;83.50
52295;DHT22;38243;53.212;6.574;2024-03-23T18:53:47;17.80;83.50
52295;DHT22;38243;53.212;6.574;2024-03-23T18:56:13;17.80;83.40
52295;DHT22;38243;53.212;6.574;2024-03-23T18:58:38;17.80;84.00
52295;DHT22;38243;53.212;6.574;2024-03-23T19:01:05;17.80;83.50
52295;DHT22;38243;53.212;6.574;2024-03-23T19:03:34;17.80;83.60
52295;DHT22;38243;53.212;6.574;2024-03-23T19:06:02;17.80;83.50
52295;DHT22;38243;53.212;6.574;2024-03-23T19:08:28;17.80;83.50
52295;DHT22;38243;53.212;6.574;2024-03-23T19:10:58;17.80;83.50
52295;DHT22;38243;53.212;6.574;2024-03-23T19:13:25;17.80;83.50
52295;DHT22;38243;53.212;6.574;2024-03-23T19:15:51;17.80;83.50
52295;DHT22;38243;53.212;6.574;2024-03-23T19:18:17;17.80;83.40
52295;DHT22;38243;53.212;6.574;2024-03-23T19:20:57;17.80;83.40
52295;DHT22;38243;53.212;6.574;2024-03-23T19:23:24;17.80;83.40
52295;DHT22;38243;53.212;6.574;2024-03-23T19:25:57;17.80;83.40
52295;DHT22;38243;53.212;6.574;2024-03-23T19:28:24;17.70;83.60
52295;DHT22;38243;53.212;6.574;2024-03-23T19:30:51;17.80;83.40
52295;DHT22;38243;53.212;6.574;2024-03-23T19:33:18;17.70;83.40
52295;DHT22;38243;53.212;6.574;2024-03-23T19:35:44;17.80;83.30
52295;DHT22;38243;53.212;6.574;2024-03-23T19:38:10;17.70;83.20
52295;DHT22;38243;53.212;6.574;2024-03-23T19:40:36;17.70;83.30
52295;DHT22;38243;53.212;6.574;2024-03-23T19:43:02;17.70;83.30
52295;DHT22;38243;53.212;6.574;2024-03-23T19:45:27;17.70;83.20
52295;DHT22;38243;53.212;6.574;2024-03-23T19:47:56;17.70;83.30
52295;DHT22;38243;53.212;6.574;2024-03-23T19:50:22;17.70;83.20
52295;DHT22;38243;53.212;6.574;2024-03-23T19:52:50;17.70;83.30
52295;DHT22;38243;53.212;6.574;2024-03-23T19:55:17;17.70;83.40
52295;DHT22;38243;53.212;6.574;2024-03-23T19:57:45;17.70;83.20
52295;DHT22;38243;53.212;6.574;2024-03-23T20:00:12;17.70;83.20
52295;DHT22;38243;53.212;6.574;2024-03-23T20:02:38;17.70;83.40
52295;DHT22;38243;53.212;6.574;2024-03-23T20:05:04;17.70;83.40
52295;DHT22;38243;53.212;6.574;2024-03-23T20:07:30;17.70;83.40
52295;DHT22;38243;53.212;6.574;2024-03-23T20:09:55;17.70;83.40
52295;DHT22;38243;53.212;6.574;2024-03-23T20:12:21;17.70;83.40
52295;DHT22;38243;53.212;6.574;2024-03-23T20:14:47;17.70;83.40
52295;DHT22;38243;53.212;6.574;2024-03-23T20:17:12;17.70;83.50
52295;DHT22;38243;53.212;6.574;2024-03-23T20:19:38;17.70;83.50
52295;DHT22;38243;53.212;6.574;2024-03-23T20:22:04;17.70;83.40
52295;DHT22;38243;53.212;6.574;2024-03-23T20:24:31;17.70;83.40
52295;DHT22;38243;53.212;6.574;2024-03-23T20:26:57;17.70;83.40
52295;DHT22;38243;53.212;6.574;2024-03-23T20:29:22;17.60;83.40
52295;DHT22;38243;53.212;6.574;2024-03-23T20:31:48;17.60;83.40
52295;DHT22;38243;53.212;6.574;2024-03-23T20:34:14;17.60;83.40
52295;DHT22;38243;53.212;6.574;2024-03-23T20:36:39;17.60;83.40
52295;DHT22;38243;53.212;6.574;2024-03-23T20:39:05;17.60;83.40
52295;DHT22;38243;53.212;6.574;2024-03-23T20:41:31;17.60;83.30
52295;DHT22;38243;53.212;6.574;2024-03-23T20:43:57;17.60;83.30
52295;DHT22;38243;53.212;6.574;2024-03-23T20:46:23;17.60;83.30
52295;DHT22;38243;53.212;6.574;2024-03-23T20:48:49;17.60;83.30
52295;DHT22;38243;53.212;6.574;2024-03-23T20:51:16;17.60;83.30
52295;DHT22;38243;53.212;6.574;2024-03-23T20:53:43;17.60;83.30
52295;DHT22;38243;53.212;6.574;2024-03-23T20:56:08;17.60;83.30
52295;DHT22;38243;53.212;6.574;2024-03-23T20:58:34;17.60;83.30
52295;DHT22;38243;53.212;6.574;2024-03-23T21:01:04;17.60;83.30
52295;DHT22;38243;53.212;6.574;2024-03-23T21:03:31;17.60;83.30
52295;DHT22;38243;53.212;6.574;2024-03-23T21:05:58;17.60;83.30
52295;DHT22;38243;53.212;6.574;2024-03-23T21:08:24;17.60;83.30
52295;DHT22;38243;53.212;6.574;2024-03-23T21:10:54;17.50;83.30
52295;DHT22;38243;53.212;6.574;2024-03-23T21:13:23;17.60;83.40
52295;DHT22;38243;53.212;6.574;2024-03-23T21:15:50;17.60;83.40
52295;DHT22;38243;53.212;6.574;2024-03-23T21:18:16;17.50;83.30
52295;DHT22;38243;53.212;6.574;2024-03-23T21:20:43;17.50;83.30
52295;DHT22;38243;53.212;6.574;2024-03-23T21:23:09;17.60;83.50
52295;DHT22;38243;53.212;6.574;2024-03-23T21:25:35;17.50;83.40
52295;DHT22;38243;53.212;6.574;2024-03-23T21:28:01;17.60;83.50
52295;DHT22;38243;53.212;6.574;2024-03-23T21:30:27;17.50;83.40
52295;DHT22;38243;53.212;6.574;2024-03-23T21:32:53;17.50;83.40
52295;DHT22;38243;53.212;6.574;2024-03-23T21:35:19;17.50;83.40
52295;DHT22;38243;53.212;6.574;2024-03-23T21:37:50;17.50;83.40
52295;DHT22;38243;53.212;6.574;2024-03-23T21:40:16;17.50;83.40
52295;DHT22;38243;53.212;6.574;2024-03-23T21:42:42;17.50;83.50
52295;DHT22;38243;53.212;6.574;2024-03-23T21:45:08;17.50;83.40
52295;DHT22;38243;53.212;6.574;2024-03-23T21:47:34;17.50;83.50
52295;DHT22;38243;53.212;6.574;2024-03-23T21:50:00;17.50;83.50
52295;DHT22;38243;53.212;6.574;2024-03-23T21:52:25;17.50;83.40
52295;DHT22;38243;53.212;6.574;2024-03-23T21:54:51;17.50;83.50
52295;DHT22;38243;53.212;6.574;2024-03-23T21:57:17;17.50;83.40
52295;DHT22;38243;53.212;6.574;2024-03-23T21:59:44;17.50;83.50
52295;DHT22;38243;53.212;6.574;2024-03-23T22:02:09;17.50;83.50
52295;DHT22;38243;53.212;6.574;2024-03-23T22:04:35;17.50;83.50
52295;DHT22;38243;53.212;6.574;2024-03-23T22:07:01;17.50;83.50
52295;DHT22;38243;53.212;6.574;2024-03-23T22:09:26;17.40;83.40
52295;DHT22;38243;53.212;6.574;2024-03-23T22:11:55;17.50;83.50
52295;DHT22;38243;53.212;6.574;2024-03-23T22:14:25;17.40;83.40
52295;DHT22;38243;53.212;6.574;2024-03-23T22:16:51;17.50;83.50
52295;DHT22;38243;53.212;6.574;2024-03-23T22:19:16;17.40;83.50
52295;DHT22;38243;53.212;6.574;2024-03-23T22:21:42;17.50;83.60
52295;DHT22;38243;53.212;6.574;2024-03-23T22:24:08;17.40;83.50
52295;DHT22;38243;53.212;6.574;2024-03-23T22:26:34;17.40;83.60
52295;DHT22;38243;53.212;6.574;2024-03-23T22:29:00;17.40;83.60
52295;DHT22;38243;53.212;6.574;2024-03-23T22:31:25;17.40;83.60
52295;DHT22;38243;53.212;6.574;2024-03-23T22:33:51;17.40;83.50
52295;DHT22;38243;53.212;6.574;2024-03-23T22:36:17;17.40;84.10
52295;DHT22;38243;53.212;6.574;2024-03-23T22:38:42;17.40;83.50
52295;DHT22;38243;53.212;6.574;2024-03-23T22:41:08;17.40;83.40
52295;DHT22;38243;53.212;6.574;2024-03-23T22:43:34;17.40;83.30
52295;DHT22;38243;53.212;6.574;2024-03-23T22:46:09;17.40;83.30
52295;DHT22;38243;53.212;6.574;2024-03-23T22:48:35;17.40;83.30
52295;DHT22;38243;53.212;6.574;2024-03-23T22:51:04;17.40;83.20
52295;DHT22;38243;53.212;6.574;2024-03-23T22:53:31;17.40;83.20
52295;DHT22;38243;53.212;6.574;2024-03-23T22:55:57;17.40;83.10
52295;DHT22;38243;53.212;6.574;2024-03-23T22:58:24;17.40;83.00
52295;DHT22;38243;53.212;6.574;2024-03-23T23:00:51;17.40;83.00
52295;DHT22;38243;53.212;6.574;2024-03-23T23:03:20;17.40;83.00
52295;DHT22;38243;53.212;6.574;2024-03-23T23:06:00;17.40;83.00
52295;DHT22;38243;53.212;6.574;2024-03-23T23:08:26;17.40;83.00
52295;DHT22;38243;53.212;6.574;2024-03-23T23:10:52;17.40;82.90
52295;DHT22;38243;53.212;6.574;2024-03-23T23:13:18;17.30;82.90
52295;DHT22;38243;53.212;6.574;2024-03-23T23:15:44;17.30;82.90
52295;DHT22;38243;53.212;6.574;2024-03-23T23:18:11;17.30;82.80
52295;DHT22;38243;53.212;6.574;2024-03-23T23:20:40;17.30;82.80
52295;DHT22;38243;53.212;6.574;2024-03-23T23:23:06;17.30;82.80
52295;DHT22;38243;53.212;6.574;2024-03-23T23:25:32;17.30;82.80
52295;DHT22;38243;53.212;6.574;2024-03-23T23:27:58;17.30;82.80
52295;DHT22;38243;53.212;6.574;2024-03-23T23:30:24;17.30;82.70
52295;DHT22;38243;53.212;6.574;2024-03-23T23:32:50;17.30;82.70
52295;DHT22;38243;53.212;6.574;2024-03-23T23:35:16;17.30;82.80
52295;DHT22;38243;53.212;6.574;2024-03-23T23:37:42;17.30;82.70
52295;DHT22;38243;53.212;6.574;2024-03-23T23:40:08;17.30;82.70
52295;DHT22;38243;53.212;6.574;2024-03-23T23:42:33;17.30;82.70
52295;DHT22;38243;53.212;6.574;2024-03-23T23:44:59;17.30;82.70
52295;DHT22;38243;53.212;6.574;2024-03-23T23:47:25;17.30;82.60
52295;DHT22;38243;53.212;6.574;2024-03-23T23:49:50;17.30;82.70
52295;DHT22;38243;53.212;6.574;2024-03-23T23:52:16;17.30;82.60
52295;DHT22;38243;53.212;6.574;2024-03-23T23:54:42;17.30;82.60
52295;DHT22;38243;53.212;6.574;2024-03-23T23:57:07;17.30;82.60
52295;DHT22;38243;53.212;6.574;2024-03-23T23:59:33;17.30;82.50
